Time;durP1;ratioP1;P1;durP2;ratioP2;P2;SDS_P1;SDS_P2;PMS_P1;PMS_P2;Temp;Humidity;BMP_temperature;BMP_pressure;BME280_temperature;BME280_humidity;BME280_pressure;Samples;Min_cycle;Max_cycle;Signal;HPM_P1;HPM_P2
2021/12/22 00:00:34;;;;;;;;;;;;;;;;;;5097038;28;19916;-75
2021/12/22 00:02:59;;;;;;;;;;;;;;;;;;5096614;28;19916;-75
2021/12/22 00:05:27;;;;;;;;;;;;;;;;;;5096087;28;19920;-75
2021/12/22 00:07:53;;;;;;;;;;;;;;;;;;5096463;28;19915;-75
2021/12/22 00:10:19;;;;;;;;;;;;;;;;;;5096306;28;19923;-75
2021/12/22 00:12:45;;;;;;;;;;;;;;;;;;5096476;28;19920;-75
2021/12/22 00:15:11;;;;;;;;;;;;;;;;;;5095634;28;19938;-75
2021/12/22 00:17:36;;;;;;;;;;;;;;;;;;5095275;28;20019;-75
2021/12/22 00:20:02;;;;;;;;;;;;;;;;;;5095807;28;20011;-75
2021/12/22 00:22:28;;;;;;;;;;;;;;;;;;5094749;28;19966;-75
2021/12/22 00:24:53;;;;;;;;;;;;;;;;;;5094379;28;19955;-75
2021/12/22 00:27:18;;;;;;;;;;;;;;;;;;5095368;28;19923;-75
2021/12/22 00:29:48;;;;;;;;;;;;;;;;;;5094038;28;19924;-75
2021/12/22 00:32:15;;;;;;;;;;;;;;;;;;5094264;28;19916;-75
2021/12/22 00:34:47;;;;;;;;;;;;;;;;;;5095170;28;19924;-75
2021/12/22 00:37:13;;;;;;;;;;;;;;;;;;5095157;28;19920;-75
2021/12/22 00:39:39;;;;;;;;;;;;;;;;;;5095139;28;20286;-75
2021/12/22 00:42:04;;;;;;;;;;;;;;;;;;5093840;28;19916;-75
2021/12/22 00:44:29;;;;;;;;;;;;;;;;;;5095353;28;19986;-75
2021/12/22 00:46:55;;;;;;;;;;;;;;;;;;5095489;28;19916;-75
2021/12/22 00:49:20;;;;;;;;;;;;;;;;;;5094102;28;20262;-75
2021/12/22 00:51:45;;;;;;;;;;;;;;;;;;5095545;28;19923;-75
2021/12/22 00:54:11;;;;;;;;;;;;;;;;;;5094840;28;20064;-74
2021/12/22 00:56:37;;;;;;;;;;;;;;;;;;5094969;28;19920;-75
2021/12/22 00:59:03;;;;;;;;;;;;;;;;;;5094673;28;19916;-74
2021/12/22 01:01:28;;;;;;;;;;;;;;;;;;5094470;28;19922;-75
2021/12/22 01:03:56;;;;;;;;;;;;;;;;;;5093896;28;20277;-74
2021/12/22 01:06:21;;;;;;;;;;;;;;;;;;5094373;28;19920;-75
2021/12/22 01:08:47;;;;;;;;;;;;;;;;;;5094465;28;19922;-75
2021/12/22 01:11:12;;;;;;;;;;;;;;;;;;5094570;28;20423;-75
2021/12/22 01:13:37;;;;;;;;;;;;;;;;;;5092371;28;19916;-74
2021/12/22 01:16:03;;;;;;;;;;;;;;;;;;5094746;28;19965;-75
2021/12/22 01:18:31;;;;;;;;;;;;;;;;;;5094325;28;19943;-75
2021/12/22 01:21:19;;;;;;;;;;;;;;;;;;5093717;28;19927;-75
2021/12/22 01:24:01;;;;;;;;;;;;;;;;;;5094447;28;20449;-75
2021/12/22 01:26:28;;;;;;;;;;;;;;;;;;5092782;28;19989;-74
2021/12/22 01:28:53;;;;;;;;;;;;;;;;;;5094407;28;19952;-74
2021/12/22 01:31:19;;;;;;;;;;;;;;;;;;5094299;28;19923;-74
2021/12/22 01:33:44;;;;;;;;;;;;;;;;;;5093460;28;19999;-75
2021/12/22 01:36:09;;;;;;;;;;;;;;;;;;5094202;28;19916;-75
2021/12/22 01:38:35;;;;;;;;;;;;;;;;;;5093485;28;19920;-74
2021/12/22 01:41:00;;;;;;;;;;;;;;;;;;5094266;28;19923;-75
2021/12/22 01:43:25;;;;;;;;;;;;;;;;;;5094110;28;19920;-75
2021/12/22 01:51:08;;;;;;;;;;;;;;;;;;5093411;28;19969;-74
2021/12/22 01:53:45;;;;;;;;;;;;;;;;;;5094025;28;19917;-74
2021/12/22 01:58:47;;;;;;;;;;;;;;;;;;5093597;28;19920;-74
2021/12/22 02:01:14;;;;;;;;;;;;;;;;;;5092569;28;19916;-74
2021/12/22 02:03:40;;;;;;;;;;;;;;;;;;5091716;28;19942;-75
2021/12/22 02:06:06;;;;;;;;;;;;;;;;;;5093740;28;20357;-74
2021/12/22 02:08:35;;;;;;;;;;;;;;;;;;5094005;28;19961;-75
2021/12/22 02:11:00;;;;;;;;;;;;;;;;;;5094032;28;19919;-75
2021/12/22 02:13:31;;;;;;;;;;;;;;;;;;5093614;28;19926;-75
2021/12/22 02:16:05;;;;;;;;;;;;;;;;;;5093926;28;19920;-75
2021/12/22 02:18:31;;;;;;;;;;;;;;;;;;5093547;28;20314;-74
2021/12/22 02:20:57;;;;;;;;;;;;;;;;;;5093641;28;20290;-74
2021/12/22 02:23:22;;;;;;;;;;;;;;;;;;5094013;28;20286;-75
2021/12/22 02:25:52;;;;;;;;;;;;;;;;;;5093593;28;19965;-75
2021/12/22 02:28:23;;;;;;;;;;;;;;;;;;5093800;28;20278;-75
2021/12/22 02:30:50;;;;;;;;;;;;;;;;;;5093756;28;19923;-75
2021/12/22 02:33:33;;;;;;;;;;;;;;;;;;5093003;28;20265;-74
2021/12/22 02:38:30;;;;;;;;;;;;;;;;;;5093474;28;19955;-75
2021/12/22 02:40:56;;;;;;;;;;;;;;;;;;5093622;28;19919;-75
2021/12/22 02:43:23;;;;;;;;;;;;;;;;;;5093546;28;19916;-74
2021/12/22 02:45:50;;;;;;;;;;;;;;;;;;5093517;28;19966;-75
2021/12/22 02:48:15;;;;;;;;;;;;;;;;;;5094525;28;19920;-74
2021/12/22 02:50:40;;;;;;;;;;;;;;;;;;5096999;28;19916;-74
2021/12/22 02:53:12;;;;;;;;;;;;;;;;;;5097281;28;19920;-75
2021/12/22 02:56:02;;;;;;;;;;;;;;;;;;5096690;28;19920;-75
2021/12/22 03:01:07;;;;;;;;;;;;;;;;;;5097000;28;20368;-74
2021/12/22 03:06:14;;;;;;;;;;;;;;;;;;5096302;28;19920;-75
2021/12/22 03:08:40;;;;;;;;;;;;;;;;;;5095912;28;20273;-74
2021/12/22 03:11:05;;;;;;;;;;;;;;;;;;5096975;28;19961;-75
2021/12/22 03:13:31;;;;;;;;;;;;;;;;;;5097065;28;19916;-76
2021/12/22 03:15:57;;;;;;;;;;;;;;;;;;5097466;28;19920;-74
2021/12/22 03:18:22;;;;;;;;;;;;;;;;;;5096881;28;20255;-75
2021/12/22 03:20:55;;;;;;;;;;;;;;;;;;5097160;28;20008;-75
2021/12/22 03:23:21;;;;;;;;;;;;;;;;;;5096827;28;19916;-74
2021/12/22 03:25:46;;;;;;;;;;;;;;;;;;5096703;28;20018;-74
2021/12/22 03:28:12;;;;;;;;;;;;;;;;;;5097101;28;20383;-74
2021/12/22 03:30:37;;;;;;;;;;;;;;;;;;5097108;28;19920;-74
2021/12/22 03:33:02;;;;;;;;;;;;;;;;;;5097071;28;19923;-75
2021/12/22 03:35:28;;;;;;;;;;;;;;;;;;5095711;28;19916;-74
2021/12/22 03:37:55;;;;;;;;;;;;;;;;;;5096255;28;19956;-74
2021/12/22 03:40:21;;;;;;;;;;;;;;;;;;5096982;28;19915;-74
2021/12/22 03:42:47;;;;;;;;;;;;;;;;;;5096914;28;20327;-75
2021/12/22 03:45:12;;;;;;;;;;;;;;;;;;5095663;28;20281;-74
2021/12/22 03:47:38;;;;;;;;;;;;;;;;;;5095815;28;19916;-76
2021/12/22 03:50:04;;;;;;;;;;;;;;;;;;5096885;28;19970;-75
2021/12/22 03:52:29;;;;;;;;;;;;;;;;;;5096305;28;19970;-76
2021/12/22 03:54:58;;;;;;;;;;;;;;;;;;5095813;28;20293;-76
2021/12/22 03:57:26;;;;;;;;;;;;;;;;;;5095943;28;19981;-71
2021/12/22 03:59:52;;;;;;;;;;;;;;;;;;5094898;28;19916;-72
2021/12/22 04:02:20;;;;;;;;;;;;;;;;;;5094933;28;20440;-72
2021/12/22 04:04:47;;;;;;;;;;;;;;;;;;5093407;28;19920;-72
2021/12/22 04:07:13;;;;;;;;;;;;;;;;;;5092369;28;19923;-72
2021/12/22 04:09:38;;;;;;;;;;;;;;;;;;5093376;28;19935;-72
2021/12/22 04:12:03;;;;;;;;;;;;;;;;;;5093326;28;19924;-72
2021/12/22 04:14:29;;;;;;;;;;;;;;;;;;5091980;28;19916;-72
2021/12/22 04:16:54;;;;;;;;;;;;;;;;;;5093226;28;19920;-72
2021/12/22 04:19:19;;;;;;;;;;;;;;;;;;5094162;28;19942;-73
2021/12/22 04:21:45;;;;;;;;;;;;;;;;;;5094659;28;19923;-72
2021/12/22 04:24:10;;;;;;;;;;;;;;;;;;5094272;28;19920;-72
2021/12/22 04:26:36;;;;;;;;;;;;;;;;;;5094342;28;19920;-72
2021/12/22 04:29:01;;;;;;;;;;;;;;;;;;5095305;28;19916;-72
2021/12/22 04:31:26;;;;;;;;;;;;;;;;;;5094077;28;19963;-72
2021/12/22 04:33:52;;;;;;;;;;;;;;;;;;5094198;28;19970;-72
2021/12/22 04:36:17;;;;;;;;;;;;;;;;;;5093655;28;19916;-72
2021/12/22 04:38:43;;;;;;;;;;;;;;;;;;5094907;28;19916;-72
2021/12/22 04:41:08;;;;;;;;;;;;;;;;;;5095202;28;19916;-72
2021/12/22 04:43:33;;;;;;;;;;;;;;;;;;5095091;28;19916;-72
2021/12/22 04:45:59;;;;;;;;;;;;;;;;;;5094791;28;19939;-72
2021/12/22 04:48:24;;;;;;;;;;;;;;;;;;5094693;28;19920;-72
2021/12/22 04:50:50;;;;;;;;;;;;;;;;;;5094803;28;19923;-72
2021/12/22 04:53:25;;;;;;;;;;;;;;;;;;5094169;28;20058;-72
2021/12/22 04:55:51;;;;;;;;;;;;;;;;;;5094717;28;19916;-72
2021/12/22 04:58:16;;;;;;;;;;;;;;;;;;5094767;28;19920;-72
2021/12/22 05:00:42;;;;;;;;;;;;;;;;;;5094559;28;19926;-72
2021/12/22 05:03:07;;;;;;;;;;;;;;;;;;5094767;28;19916;-72
2021/12/22 05:05:33;;;;;;;;;;;;;;;;;;5094370;28;19973;-72
2021/12/22 05:07:58;;;;;;;;;;;;;;;;;;5094733;28;19916;-72
2021/12/22 05:10:24;;;;;;;;;;;;;;;;;;5094781;28;20361;-72
2021/12/22 05:12:51;;;;;;;;;;;;;;;;;;5093320;28;19916;-72
2021/12/22 05:15:21;;;;;;;;;;;;;;;;;;5093816;28;19923;-72
2021/12/22 05:20:14;;;;;;;;;;;;;;;;;;5094170;28;19916;-72
2021/12/22 05:22:39;;;;;;;;;;;;;;;;;;5094618;28;19916;-72
2021/12/22 05:25:06;;;;;;;;;;;;;;;;;;5094205;28;20389;-72
2021/12/22 05:27:32;;;;;;;;;;;;;;;;;;5094252;28;19916;-72
2021/12/22 05:29:58;;;;;;;;;;;;;;;;;;5093984;28;20353;-72
2021/12/22 05:32:30;;;;;;;;;;;;;;;;;;5094203;28;19923;-72
2021/12/22 05:34:55;;;;;;;;;;;;;;;;;;5094101;28;20483;-73
2021/12/22 05:37:20;;;;;;;;;;;;;;;;;;5094162;28;19966;-72
2021/12/22 05:39:45;;;;;;;;;;;;;;;;;;5093263;28;20018;-72
2021/12/22 05:42:11;;;;;;;;;;;;;;;;;;5093924;28;19922;-72
2021/12/22 05:44:36;;;;;;;;;;;;;;;;;;5093997;28;20348;-72
2021/12/22 05:47:01;;;;;;;;;;;;;;;;;;5094018;28;19960;-72
2021/12/22 05:49:27;;;;;;;;;;;;;;;;;;5092375;28;19973;-72
2021/12/22 05:51:52;;;;;;;;;;;;;;;;;;5093915;28;19916;-72
2021/12/22 05:54:17;;;;;;;;;;;;;;;;;;5093912;28;19967;-72
2021/12/22 05:56:43;;;;;;;;;;;;;;;;;;5093112;28;19912;-72
2021/12/22 05:59:08;;;;;;;;;;;;;;;;;;5093872;28;19916;-72
2021/12/22 06:01:33;;;;;;;;;;;;;;;;;;5093772;28;19931;-72
2021/12/22 06:04:00;;;;;;;;;;;;;;;;;;5075804;28;20394;-72
2021/12/22 06:06:26;;;;;;;;;;;;;;;;;;5073675;28;19927;-72
2021/12/22 06:08:52;;;;;;;;;;;;;;;;;;5073332;28;19923;-72
2021/12/22 06:11:17;;;;;;;;;;;;;;;;;;5073626;28;19917;-72
2021/12/22 06:13:42;;;;;;;;;;;;;;;;;;5073436;28;19924;-72
2021/12/22 06:16:08;;;;;;;;;;;;;;;;;;5073324;28;20428;-72
2021/12/22 06:18:40;;;;;;;;;;;;;;;;;;5073043;28;19920;-72
2021/12/22 06:21:06;;;;;;;;;;;;;;;;;;5072908;28;19924;-72
2021/12/22 06:23:31;;;;;;;;;;;;;;;;;;5074609;28;19916;-72
2021/12/22 06:25:59;;;;;;;;;;;;;;;;;;5077181;28;19921;-72
2021/12/22 06:28:24;;;;;;;;;;;;;;;;;;5095765;28;19916;-72
2021/12/22 06:30:50;;;;;;;;;;;;;;;;;;5097364;28;19916;-72
2021/12/22 06:33:15;;;;;;;;;;;;;;;;;;5096971;28;20015;-72
2021/12/22 06:35:40;;;;;;;;;;;;;;;;;;5097554;28;19916;-72
2021/12/22 06:38:06;;;;;;;;;;;;;;;;;;5097437;28;19916;-72
2021/12/22 06:40:31;;;;;;;;;;;;;;;;;;5097429;28;19916;-72
2021/12/22 06:42:56;;;;;;;;;;;;;;;;;;5097429;28;20393;-72
2021/12/22 06:45:22;;;;;;;;;;;;;;;;;;5097349;28;19920;-72
2021/12/22 06:47:48;;;;;;;;;;;;;;;;;;5097121;28;19923;-72
2021/12/22 06:50:13;;;;;;;;;;;;;;;;;;5097279;28;19959;-72
2021/12/22 06:52:38;;;;;;;;;;;;;;;;;;5097430;28;19986;-72
2021/12/22 06:55:04;;;;;;;;;;;;;;;;;;5096937;28;19924;-72
2021/12/22 06:57:31;;;;;;;;;;;;;;;;;;5096489;28;20004;-72
2021/12/22 06:59:58;;;;;;;;;;;;;;;;;;5097235;28;19920;-72
2021/12/22 07:02:25;;;;;;;;;;;;;;;;;;5095658;28;19981;-72
2021/12/22 07:04:50;;;;;;;;;;;;;;;;;;5096030;28;19920;-72
2021/12/22 07:07:16;;;;;;;;;;;;;;;;;;5096814;28;19980;-72
2021/12/22 07:09:41;;;;;;;;;;;;;;;;;;5096807;28;19923;-72
2021/12/22 07:12:08;;;;;;;;;;;;;;;;;;5096826;28;19920;-72
2021/12/22 07:14:33;;;;;;;;;;;;;;;;;;5095982;28;19916;-72
2021/12/22 07:16:59;;;;;;;;;;;;;;;;;;5096584;28;19935;-72
2021/12/22 07:19:24;;;;;;;;;;;;;;;;;;5096866;28;20378;-72
2021/12/22 07:21:49;;;;;;;;;;;;;;;;;;5096647;28;19960;-72
2021/12/22 07:24:15;;;;;;;;;;;;;;;;;;5095436;28;19967;-72
2021/12/22 07:26:40;;;;;;;;;;;;;;;;;;5096409;28;19916;-72
2021/12/22 07:29:05;;;;;;;;;;;;;;;;;;5096555;28;19916;-72
2021/12/22 07:31:31;;;;;;;;;;;;;;;;;;5096510;28;19916;-73
2021/12/22 07:34:15;;;;;;;;;;;;;;;;;;5095496;28;19920;-74
2021/12/22 07:36:42;;;;;;;;;;;;;;;;;;5096310;28;20350;-75
2021/12/22 07:39:07;;;;;;;;;;;;;;;;;;5096274;28;19916;-77
2021/12/22 07:41:32;;;;;;;;;;;;;;;;;;5096369;28;20354;-79
2021/12/22 07:43:58;;;;;;;;;;;;;;;;;;5096730;28;20376;-74
2021/12/22 07:46:23;;;;;;;;;;;;;;;;;;5096042;28;20022;-74
2021/12/22 07:48:49;;;;;;;;;;;;;;;;;;5096119;28;19963;-72
2021/12/22 07:51:14;;;;;;;;;;;;;;;;;;5095452;28;20007;-72
2021/12/22 07:53:39;;;;;;;;;;;;;;;;;;5095302;28;19916;-72
2021/12/22 07:56:04;;;;;;;;;;;;;;;;;;5095759;28;19916;-72
2021/12/22 07:58:30;;;;;;;;;;;;;;;;;;5095349;28;19947;-74
2021/12/22 08:00:56;;;;;;;;;;;;;;;;;;5095954;28;20383;-75
2021/12/22 08:03:22;;;;;;;;;;;;;;;;;;5095278;28;19923;-76
2021/12/22 08:05:47;;;;;;;;;;;;;;;;;;5095386;28;19920;-77
2021/12/22 08:08:13;;;;;;;;;;;;;;;;;;5095441;28;20052;-76
2021/12/22 08:10:38;;;;;;;;;;;;;;;;;;5095719;28;20263;-76
2021/12/22 08:13:03;;;;;;;;;;;;;;;;;;5095110;28;19916;-75
2021/12/22 08:15:29;;;;;;;;;;;;;;;;;;5094307;28;20361;-75
2021/12/22 08:17:54;;;;;;;;;;;;;;;;;;5095080;28;19916;-75
2021/12/22 08:20:20;;;;;;;;;;;;;;;;;;5095526;28;19923;-75
2021/12/22 08:22:46;;;;;;;;;;;;;;;;;;5077297;28;20362;-75
2021/12/22 08:25:12;;;;;;;;;;;;;;;;;;5095323;28;19916;-75
2021/12/22 08:27:38;;;;;;;;;;;;;;;;;;5095090;28;19923;-75
2021/12/22 08:30:04;;;;;;;;;;;;;;;;;;5094956;28;20269;-76
2021/12/22 08:32:29;;;;;;;;;;;;;;;;;;5095055;28;20385;-76
2021/12/22 08:34:56;;;;;;;;;;;;;;;;;;5094643;28;19916;-75
2021/12/22 08:40:06;;;;;;;;;;;;;;;;;;5095525;28;20324;-75
2021/12/22 08:42:31;;;;;;;;;;;;;;;;;;5094710;28;19969;-75
2021/12/22 08:44:57;;;;;;;;;;;;;;;;;;5094988;28;20018;-74
2021/12/22 08:47:22;;;;;;;;;;;;;;;;;;5093132;28;19916;-76
2021/12/22 08:49:47;;;;;;;;;;;;;;;;;;5095076;28;19978;-74
2021/12/22 08:52:13;;;;;;;;;;;;;;;;;;5095080;28;19951;-73
2021/12/22 08:54:41;;;;;;;;;;;;;;;;;;5094896;28;20342;-73
2021/12/22 08:57:07;;;;;;;;;;;;;;;;;;5093950;28;20337;-72
2021/12/22 08:59:32;;;;;;;;;;;;;;;;;;5094301;28;19916;-72
2021/12/22 09:01:58;;;;;;;;;;;;;;;;;;5094639;28;20362;-72
2021/12/22 09:04:23;;;;;;;;;;;;;;;;;;5092780;28;19922;-72
2021/12/22 09:06:49;;;;;;;;;;;;;;;;;;5094699;28;19920;-73
2021/12/22 09:09:15;;;;;;;;;;;;;;;;;;5094597;28;20003;-72
2021/12/22 09:11:40;;;;;;;;;;;;;;;;;;5093037;28;20015;-73
2021/12/22 09:14:06;;;;;;;;;;;;;;;;;;5093177;28;19923;-72
2021/12/22 09:16:33;;;;;;;;;;;;;;;;;;5093666;28;19916;-72
2021/12/22 09:18:58;;;;;;;;;;;;;;;;;;5093783;28;19920;-72
2021/12/22 09:21:23;;;;;;;;;;;;;;;;;;5093591;28;20258;-72
2021/12/22 09:23:48;;;;;;;;;;;;;;;;;;5094533;28;20346;-74
2021/12/22 09:26:15;;;;;;;;;;;;;;;;;;5093921;28;19928;-74
2021/12/22 09:28:40;;;;;;;;;;;;;;;;;;5093474;28;19916;-73
2021/12/22 09:31:06;;;;;;;;;;;;;;;;;;5094284;28;20011;-74
2021/12/22 09:33:32;;;;;;;;;;;;;;;;;;5093454;28;20405;-74
2021/12/22 09:35:58;;;;;;;;;;;;;;;;;;5092776;28;20011;-74
2021/12/22 09:38:23;;;;;;;;;;;;;;;;;;5094283;28;20385;-73
2021/12/22 09:40:49;;;;;;;;;;;;;;;;;;5094188;28;19917;-74
2021/12/22 09:43:14;;;;;;;;;;;;;;;;;;5093558;28;19920;-74
2021/12/22 09:45:44;;;;;;;;;;;;;;;;;;5093969;28;20083;-74
2021/12/22 09:53:09;;;;;;;;;;;;;;;;;;5093679;28;19939;-74
2021/12/22 09:55:35;;;;;;;;;;;;;;;;;;5093194;28;20350;-74
2021/12/22 09:58:03;;;;;;;;;;;;;;;;;;5093326;28;19912;-74
2021/12/22 10:00:30;;;;;;;;;;;;;;;;;;5093725;28;19916;-74
2021/12/22 10:02:55;;;;;;;;;;;;;;;;;;5093758;28;19977;-74
2021/12/22 10:05:21;;;;;;;;;;;;;;;;;;5091800;28;20278;-74
2021/12/22 10:08:03;;;;;;;;;;;;;;;;;;5093884;28;19927;-73
2021/12/22 10:10:30;;;;;;;;;;;;;;;;;;5093966;28;20254;-73
2021/12/22 10:13:05;;;;;;;;;;;;;;;;;;5093975;28;19938;-72
2021/12/22 10:15:32;;;;;;;;;;;;;;;;;;5094033;28;20270;-73
2021/12/22 10:18:06;;;;;;;;;;;;;;;;;;5093698;28;19927;-72
2021/12/22 10:20:31;;;;;;;;;;;;;;;;;;5092812;28;20333;-72
2021/12/22 10:22:56;;;;;;;;;;;;;;;;;;5093865;28;19974;-73
2021/12/22 10:25:22;;;;;;;;;;;;;;;;;;5093600;28;19943;-73
2021/12/22 10:28:02;;;;;;;;;;;;;;;;;;5092178;28;20366;-72
2021/12/22 10:30:32;;;;;;;;;;;;;;;;;;5093501;28;19920;-72
2021/12/22 10:33:09;;;;;;;;;;;;;;;;;;5093601;28;19920;-73
2021/12/22 10:35:35;;;;;;;;;;;;;;;;;;5073183;28;19917;-72
2021/12/22 10:38:01;;;;;;;;;;;;;;;;;;5072905;28;19916;-71
2021/12/22 10:40:31;;;;;;;;;;;;;;;;;;5073129;28;19917;-73
2021/12/22 10:42:57;;;;;;;;;;;;;;;;;;5073326;28;20011;-72
2021/12/22 10:45:23;;;;;;;;;;;;;;;;;;5073153;28;20327;-73
2021/12/22 10:50:33;;;;;;;;;;;;;;;;;;5085668;28;20273;-73
2021/12/22 10:52:59;;;;;;;;;;;;;;;;;;5093474;28;20011;-73
2021/12/22 10:55:24;;;;;;;;;;;;;;;;;;5093002;28;19916;-72
2021/12/22 10:57:49;;;;;;;;;;;;;;;;;;5093368;28;19951;-72
2021/12/22 11:00:19;;;;;;;;;;;;;;;;;;5092274;28;19951;-72
2021/12/22 11:03:00;;;;;;;;;;;;;;;;;;5082825;28;20019;-73
2021/12/22 11:05:28;;;;;;;;;;;;;;;;;;5082263;28;19925;-72
2021/12/22 11:07:54;;;;;;;;;;;;;;;;;;5090645;28;19916;-72
2021/12/22 11:10:26;;;;;;;;;;;;;;;;;;5094323;28;20410;-72
2021/12/22 11:13:03;;;;;;;;;;;;;;;;;;5096867;28;19916;-73
2021/12/22 11:15:28;;;;;;;;;;;;;;;;;;5094405;28;19959;-74
2021/12/22 11:17:54;;;;;;;;;;;;;;;;;;5096549;28;20290;-73
2021/12/22 11:20:21;;;;;;;;;;;;;;;;;;5090873;28;19956;-73
2021/12/22 11:23:00;;;;;;;;;;;;;;;;;;5084956;28;19921;-73
2021/12/22 11:25:26;;;;;;;;;;;;;;;;;;5084801;28;19928;-73
2021/12/22 11:27:52;;;;;;;;;;;;;;;;;;5084977;28;20010;-74
2021/12/22 11:30:18;;;;;;;;;;;;;;;;;;5078460;28;19970;-72
2021/12/22 11:32:44;;;;;;;;;;;;;;;;;;5076166;28;19962;-74
2021/12/22 11:35:10;;;;;;;;;;;;;;;;;;5084690;28;20011;-74
2021/12/22 11:37:36;;;;;;;;;;;;;;;;;;5096682;28;19925;-72
2021/12/22 11:40:03;;;;;;;;;;;;;;;;;;5096514;28;20282;-72
2021/12/22 11:42:37;;;;;;;;;;;;;;;;;;5093959;28;19916;-73
2021/12/22 11:45:05;;;;;;;;;;;;;;;;;;5085868;28;19980;-74
2021/12/22 11:47:34;;;;;;;;;;;;;;;;;;5086043;28;20366;-73
2021/12/22 11:50:00;;;;;;;;;;;;;;;;;;5085883;28;19943;-73
2021/12/22 11:52:43;;;;;;;;;;;;;;;;;;5085394;28;19923;-73
2021/12/22 11:55:16;;;;;;;;;;;;;;;;;;5084963;28;19916;-74
2021/12/22 11:57:42;;;;;;;;;;;;;;;;;;5082201;28;19947;-73
2021/12/22 12:00:27;;;;;;;;;;;;;;;;;;5069873;28;19923;-76
2021/12/22 12:02:53;;;;;;;;;;;;;;;;;;5096406;28;19945;-76
2021/12/22 12:05:29;;;;;;;;;;;;;;;;;;5095100;28;20011;-77
2021/12/22 12:07:55;;;;;;;;;;;;;;;;;;5095432;28;19923;-75
2021/12/22 12:10:33;;;;;;;;;;;;;;;;;;5091383;28;19957;-74
2021/12/22 12:13:17;;;;;;;;;;;;;;;;;;5076047;28;19923;-74
2021/12/22 12:21:38;;;;;;;;;;;;;;;;;;5085738;28;19921;-75
2021/12/22 12:21:49;;;;;;;;;;;;;;;;;;5084635;28;19923;-76
2021/12/22 12:24:34;;;;;;;;;;;;;;;;;;5082680;28;19917;-75
2021/12/22 12:27:22;;;;;;;;;;;;;;;;;;5094305;28;20047;-75
2021/12/22 12:29:53;;;;;;;;;;;;;;;;;;5095006;28;19920;-75
2021/12/22 12:32:37;;;;;;;;;;;;;;;;;;5095791;28;20010;-76
2021/12/22 12:35:22;;;;;;;;;;;;;;;;;;5093880;28;19915;-74
2021/12/22 12:38:03;;;;;;;;;;;;;;;;;;5095384;28;19916;-74
2021/12/22 12:40:47;;;;;;;;;;;;;;;;;;5095043;28;19916;-75
2021/12/22 12:43:12;;;;;;;;;;;;;;;;;;5094883;28;19916;-76
2021/12/22 12:45:41;;;;;;;;;;;;;;;;;;5095088;28;19927;-75
2021/12/22 12:48:25;;;;;;;;;;;;;;;;;;5094879;28;19924;-76
2021/12/22 12:51:09;;;;;;;;;;;;;;;;;;5095082;28;19916;-75
2021/12/22 12:53:42;;;;;;;;;;;;;;;;;;5093478;28;20013;-76
2021/12/22 12:56:08;;;;;;;;;;;;;;;;;;5094858;28;19966;-75
2021/12/22 12:58:33;;;;;;;;;;;;;;;;;;5095019;28;19919;-76
2021/12/22 13:00:59;;;;;;;;;;;;;;;;;;5094721;28;19916;-75
2021/12/22 13:03:24;;;;;;;;;;;;;;;;;;5094711;28;19916;-76
2021/12/22 13:05:49;;;;;;;;;;;;;;;;;;5094642;28;20022;-76
2021/12/22 13:08:15;;;;;;;;;;;;;;;;;;5094477;28;19916;-76
2021/12/22 13:10:44;;;;;;;;;;;;;;;;;;5093628;28;20285;-75
2021/12/22 13:13:14;;;;;;;;;;;;;;;;;;5094630;28;20368;-75
2021/12/22 13:15:46;;;;;;;;;;;;;;;;;;5094566;28;19916;-76
2021/12/22 13:18:13;;;;;;;;;;;;;;;;;;5094479;28;19916;-76
2021/12/22 13:20:40;;;;;;;;;;;;;;;;;;5094491;28;19973;-76
2021/12/22 13:23:09;;;;;;;;;;;;;;;;;;5094411;28;19967;-75
2021/12/22 13:25:36;;;;;;;;;;;;;;;;;;5094350;28;19955;-74
2021/12/22 13:28:04;;;;;;;;;;;;;;;;;;5093445;28;19929;-74
2021/12/22 13:30:29;;;;;;;;;;;;;;;;;;5094314;28;19956;-74
2021/12/22 13:33:01;;;;;;;;;;;;;;;;;;5093475;28;19966;-74
2021/12/22 13:35:31;;;;;;;;;;;;;;;;;;5094291;28;19916;-74
2021/12/22 13:37:56;;;;;;;;;;;;;;;;;;5094225;28;20010;-73
2021/12/22 13:40:35;;;;;;;;;;;;;;;;;;5094166;28;20380;-74
2021/12/22 13:43:01;;;;;;;;;;;;;;;;;;5094159;28;19922;-74
2021/12/22 13:45:26;;;;;;;;;;;;;;;;;;5093967;28;20026;-74
2021/12/22 13:47:51;;;;;;;;;;;;;;;;;;5093871;28;19920;-73
2021/12/22 13:50:17;;;;;;;;;;;;;;;;;;5093527;28;19971;-74
2021/12/22 13:52:42;;;;;;;;;;;;;;;;;;5093286;28;19916;-74
2021/12/22 13:55:08;;;;;;;;;;;;;;;;;;5093781;28;19923;-74
2021/12/22 13:57:33;;;;;;;;;;;;;;;;;;5093922;28;19916;-74
2021/12/22 13:59:59;;;;;;;;;;;;;;;;;;5093945;28;20045;-74
2021/12/22 14:02:34;;;;;;;;;;;;;;;;;;5094043;28;19958;-74
2021/12/22 14:05:15;;;;;;;;;;;;;;;;;;5093920;28;19924;-74
2021/12/22 14:07:40;;;;;;;;;;;;;;;;;;5073588;28;19920;-74
2021/12/22 14:10:10;;;;;;;;;;;;;;;;;;5073611;28;20007;-74
2021/12/22 14:12:37;;;;;;;;;;;;;;;;;;5080487;28;20068;-74
2021/12/22 14:15:02;;;;;;;;;;;;;;;;;;5093578;28;20072;-74
2021/12/22 14:17:40;;;;;;;;;;;;;;;;;;5093724;28;19977;-74
2021/12/22 14:20:06;;;;;;;;;;;;;;;;;;5093720;28;19952;-74
2021/12/22 14:22:32;;;;;;;;;;;;;;;;;;5093795;28;20019;-76
2021/12/22 14:25:14;;;;;;;;;;;;;;;;;;5093531;28;19920;-76
2021/12/22 14:27:41;;;;;;;;;;;;;;;;;;5093151;28;19916;-79
2021/12/22 14:30:09;;;;;;;;;;;;;;;;;;5094076;28;19916;-78
2021/12/22 14:32:36;;;;;;;;;;;;;;;;;;5093585;28;19916;-80
2021/12/22 14:35:07;;;;;;;;;;;;;;;;;;5112016;28;19965;-77
2021/12/22 14:37:33;;;;;;;;;;;;;;;;;;5106141;28;20374;-77
2021/12/22 14:39:58;;;;;;;;;;;;;;;;;;5073443;28;19966;-76
2021/12/22 14:42:26;;;;;;;;;;;;;;;;;;5073861;28;19924;-78
2021/12/22 14:44:52;;;;;;;;;;;;;;;;;;5074825;28;19917;-78
2021/12/22 14:47:19;;;;;;;;;;;;;;;;;;5077380;28;19999;-77
2021/12/22 14:49:45;;;;;;;;;;;;;;;;;;5079399;28;19978;-77
2021/12/22 14:52:10;;;;;;;;;;;;;;;;;;5077923;28;20266;-83
2021/12/22 14:54:35;;;;;;;;;;;;;;;;;;5078519;28;19923;-75
2021/12/22 14:57:01;;;;;;;;;;;;;;;;;;5081120;28;19916;-77
2021/12/22 14:59:26;;;;;;;;;;;;;;;;;;5097300;28;19931;-76
2021/12/22 15:01:51;;;;;;;;;;;;;;;;;;5097305;28;20014;-76
2021/12/22 15:04:17;;;;;;;;;;;;;;;;;;5096027;28;19927;-77
2021/12/22 15:06:42;;;;;;;;;;;;;;;;;;5096729;28;19927;-77
2021/12/22 15:09:09;;;;;;;;;;;;;;;;;;5096355;28;19916;-76
2021/12/22 15:11:35;;;;;;;;;;;;;;;;;;5096879;28;19916;-76
2021/12/22 15:14:01;;;;;;;;;;;;;;;;;;5096430;28;19922;-76
2021/12/22 15:16:27;;;;;;;;;;;;;;;;;;5096817;28;20026;-77
2021/12/22 15:18:54;;;;;;;;;;;;;;;;;;5096904;28;20015;-76
2021/12/22 15:21:20;;;;;;;;;;;;;;;;;;5096527;28;19962;-75
2021/12/22 15:23:45;;;;;;;;;;;;;;;;;;5096574;28;19920;-76
2021/12/22 15:26:11;;;;;;;;;;;;;;;;;;5095924;28;19926;-76
2021/12/22 15:28:37;;;;;;;;;;;;;;;;;;5095317;28;20031;-75
2021/12/22 15:31:03;;;;;;;;;;;;;;;;;;5095500;28;19923;-76
2021/12/22 15:33:29;;;;;;;;;;;;;;;;;;5095576;28;19924;-76
2021/12/22 15:35:54;;;;;;;;;;;;;;;;;;5096550;28;19923;-76
2021/12/22 15:38:20;;;;;;;;;;;;;;;;;;5094789;28;19924;-76
2021/12/22 15:40:46;;;;;;;;;;;;;;;;;;5096065;28;20015;-76
2021/12/22 15:43:12;;;;;;;;;;;;;;;;;;5095956;28;19985;-76
2021/12/22 15:45:37;;;;;;;;;;;;;;;;;;5095141;28;19924;-76
2021/12/22 15:48:03;;;;;;;;;;;;;;;;;;5096100;28;20364;-76
2021/12/22 15:50:30;;;;;;;;;;;;;;;;;;5096408;28;19916;-78
2021/12/22 15:52:56;;;;;;;;;;;;;;;;;;5097176;28;20383;-79
2021/12/22 15:55:22;;;;;;;;;;;;;;;;;;5097240;28;19917;-76
2021/12/22 15:57:47;;;;;;;;;;;;;;;;;;5095944;28;19956;-73
2021/12/22 16:00:16;;;;;;;;;;;;;;;;;;5096070;28;19969;-73
2021/12/22 16:02:41;;;;;;;;;;;;;;;;;;5095907;28;20296;-74
2021/12/22 16:05:07;;;;;;;;;;;;;;;;;;5094957;28;19920;-74
2021/12/22 16:07:33;;;;;;;;;;;;;;;;;;5094444;28;19920;-73
2021/12/22 16:09:59;;;;;;;;;;;;;;;;;;5095591;28;20366;-73
2021/12/22 16:12:24;;;;;;;;;;;;;;;;;;5095045;28;19924;-73
2021/12/22 16:14:50;;;;;;;;;;;;;;;;;;5094297;28;19923;-73
2021/12/22 16:17:15;;;;;;;;;;;;;;;;;;5095421;28;19980;-73
2021/12/22 16:19:40;;;;;;;;;;;;;;;;;;5095171;28;19962;-73
2021/12/22 16:22:06;;;;;;;;;;;;;;;;;;5095344;28;19923;-74
2021/12/22 16:24:31;;;;;;;;;;;;;;;;;;5095613;28;20266;-73
2021/12/22 16:26:56;;;;;;;;;;;;;;;;;;5095296;28;20290;-73
2021/12/22 16:29:22;;;;;;;;;;;;;;;;;;5095124;28;19919;-74
2021/12/22 16:31:47;;;;;;;;;;;;;;;;;;5095253;28;20432;-73
2021/12/22 16:34:13;;;;;;;;;;;;;;;;;;5094456;28;19923;-73
2021/12/22 16:36:38;;;;;;;;;;;;;;;;;;5095306;28;20419;-73
2021/12/22 16:39:03;;;;;;;;;;;;;;;;;;5095093;28;19980;-73
2021/12/22 16:41:29;;;;;;;;;;;;;;;;;;5095295;28;19912;-73
2021/12/22 16:43:55;;;;;;;;;;;;;;;;;;5094047;28;19989;-73
2021/12/22 16:46:20;;;;;;;;;;;;;;;;;;5094987;28;19926;-73
2021/12/22 16:48:46;;;;;;;;;;;;;;;;;;5094769;28;19923;-74
2021/12/22 16:51:11;;;;;;;;;;;;;;;;;;5094930;28;19924;-73
2021/12/22 16:53:36;;;;;;;;;;;;;;;;;;5094824;28;20521;-73
2021/12/22 16:56:03;;;;;;;;;;;;;;;;;;5094794;28;19916;-73
2021/12/22 16:58:29;;;;;;;;;;;;;;;;;;5094678;28;19977;-73
2021/12/22 17:00:54;;;;;;;;;;;;;;;;;;5094135;28;20017;-73
2021/12/22 17:03:20;;;;;;;;;;;;;;;;;;5093429;28;20317;-73
2021/12/22 17:05:48;;;;;;;;;;;;;;;;;;5094584;28;20028;-73
2021/12/22 17:08:13;;;;;;;;;;;;;;;;;;5093165;28;20011;-73
2021/12/22 17:10:39;;;;;;;;;;;;;;;;;;5094693;28;19963;-73
2021/12/22 17:13:05;;;;;;;;;;;;;;;;;;5092910;28;19963;-73
2021/12/22 17:15:30;;;;;;;;;;;;;;;;;;5092360;28;19923;-75
2021/12/22 17:17:56;;;;;;;;;;;;;;;;;;5094088;28;19916;-74